Time;durP1;ratioP1;P1;durP2;ratioP2;P2;SDS_P1;SDS_P2;PMS_P1;PMS_P2;Temp;Humidity;BMP_temperature;BMP_pressure;BME280_temperature;BME280_humidity;BME280_pressure;Samples;Min_cycle;Max_cycle;Signal;HPM_P1;HPM_P2
2021/01/18 00:01:40;;;;;;;7.50;2.53;;;26.00;74.80;;;;;;5089842;28;20368;-83
2021/01/18 00:04:07;;;;;;;8.38;2.65;;;26.10;73.80;;;;;;5088571;28;20423;-81
2021/01/18 00:06:35;;;;;;;9.02;2.47;;;26.30;73.50;;;;;;5099185;28;20383;-84
2021/01/18 00:09:02;;;;;;;11.23;2.63;;;26.60;73.90;;;;;;5095039;28;20398;-82
2021/01/18 00:11:30;;;;;;;11.18;2.60;;;26.90;70.50;;;;;;5104401;28;20387;-83
2021/01/18 00:13:57;;;;;;;7.90;2.70;;;26.70;70.50;;;;;;5106955;28;20379;-83
2021/01/18 00:16:24;;;;;;;9.43;2.60;;;26.60;76.60;;;;;;5106753;28;20401;-82
2021/01/18 00:18:51;;;;;;;11.05;2.72;;;26.80;72.30;;;;;;5099412;28;20411;-83
2021/01/18 00:21:18;;;;;;;8.85;2.42;;;26.80;71.30;;;;;;5100295;28;20386;-83
2021/01/18 00:23:45;;;;;;;7.28;2.83;;;27.20;70.20;;;;;;5101937;28;20447;-82
2021/01/18 00:26:12;;;;;;;8.77;2.80;;;28.00;69.20;;;;;;5105196;28;20394;-84
2021/01/18 00:28:40;;;;;;;9.23;2.42;;;28.80;64.70;;;;;;5108166;28;20413;-82
2021/01/18 00:31:07;;;;;;;7.95;2.60;;;29.00;65.40;;;;;;5102045;28;20853;-83
2021/01/18 00:34:05;;;;;;;;;;;;;;;;;;;;;
2021/01/18 00:36:32;;;;;;;8.77;2.50;;;30.10;61.70;;;;;;5084140;28;20430;-82
2021/01/18 00:38:59;;;;;;;8.98;2.55;;;30.50;61.30;;;;;;5093617;28;20737;-82
2021/01/18 00:41:26;;;;;;;9.07;2.38;;;30.90;58.10;;;;;;5077401;28;20746;-82
2021/01/18 00:43:53;;;;;;;6.72;2.35;;;30.90;57.50;;;;;;5104675;28;20478;-83
2021/01/18 00:46:20;;;;;;;9.27;2.07;;;31.40;53.20;;;;;;5105682;28;20389;-82
2021/01/18 00:48:47;;;;;;;11.05;2.30;;;31.10;53.60;;;;;;5104983;28;20871;-83
2021/01/18 00:51:14;;;;;;;5.83;2.10;;;30.80;57.10;;;;;;5099099;28;20435;-83
2021/01/18 00:53:41;;;;;;;8.80;2.10;;;31.00;56.90;;;;;;5109168;27;20898;-83
2021/01/18 00:56:08;;;;;;;6.82;2.13;;;30.70;53.50;;;;;;5103183;28;20387;-81
2021/01/18 00:58:35;;;;;;;7.25;2.40;;;30.20;54.50;;;;;;5097393;28;20390;-82
2021/01/18 01:01:03;;;;;;;7.70;2.40;;;30.10;58.80;;;;;;5102830;28;20404;-82
2021/01/18 01:03:30;;;;;;;10.10;2.47;;;30.50;54.70;;;;;;5095473;28;20400;-81
2021/01/18 01:05:57;;;;;;;7.30;2.30;;;30.40;51.80;;;;;;5097853;28;20770;-82
2021/01/18 01:08:24;;;;;;;9.60;2.58;;;30.10;54.60;;;;;;5105853;28;20400;-82
2021/01/18 01:10:51;;;;;;;9.20;2.00;;;30.10;54.60;;;;;;5091903;28;20756;-82
2021/01/18 01:13:18;;;;;;;8.77;2.42;;;30.60;54.30;;;;;;5094198;27;20392;-82
2021/01/18 01:15:45;;;;;;;9.65;2.33;;;30.90;60.60;;;;;;5112003;27;20375;-81
2021/01/18 01:18:12;;;;;;;6.22;2.25;;;30.30;53.90;;;;;;5104171;28;20394;-82
2021/01/18 01:20:39;;;;;;;7.65;2.05;;;30.20;54.40;;;;;;5102496;28;20463;-82
2021/01/18 01:23:06;;;;;;;3.58;1.52;;;29.80;53.60;;;;;;5103551;28;20784;-83
2021/01/18 01:25:33;;;;;;;7.88;1.85;;;29.80;52.90;;;;;;5104451;27;20389;-82
2021/01/18 01:28:00;;;;;;;7.07;1.88;;;29.40;48.10;;;;;;5109824;28;20410;-83
2021/01/18 01:30:27;;;;;;;5.47;1.65;;;29.60;56.90;;;;;;5106702;28;20375;-82
2021/01/18 01:32:55;;;;;;;5.53;1.50;;;29.70;50.30;;;;;;5093663;28;20410;-82
2021/01/18 01:35:27;;;;;;;5.07;1.85;;;29.50;50.10;;;;;;5096709;28;20378;-82
2021/01/18 01:37:56;;;;;;;6.97;2.10;;;29.60;50.60;;;;;;5102726;28;20392;-84
2021/01/18 01:40:23;;;;;;;6.70;1.88;;;29.20;52.60;;;;;;5091756;28;20596;-83
2021/01/18 01:42:51;;;;;;;8.65;2.03;;;29.30;53.30;;;;;;5111577;28;20473;-81
2021/01/18 01:45:20;;;;;;;6.13;1.53;;;29.40;53.00;;;;;;5111248;28;20440;-83
2021/01/18 01:47:48;;;;;;;5.72;1.70;;;29.10;52.10;;;;;;5109607;28;20410;-82
2021/01/18 01:50:22;;;;;;;6.53;1.67;;;29.20;54.60;;;;;;5109851;28;20382;-83
2021/01/18 01:53:05;;;;;;;4.35;1.55;;;29.40;50.70;;;;;;5109657;28;20710;-84
2021/01/18 01:55:34;;;;;;;5.18;1.67;;;29.50;53.00;;;;;;5111095;28;20699;-83
2021/01/18 01:58:05;;;;;;;6.70;2.05;;;29.50;50.40;;;;;;5100943;28;20392;-83
2021/01/18 02:00:37;;;;;;;4.80;1.65;;;29.50;54.00;;;;;;5112224;28;20463;-83
2021/01/18 02:03:11;;;;;;;7.43;1.52;;;29.60;53.40;;;;;;5111915;28;20505;-84
2021/01/18 02:05:39;;;;;;;4.20;1.70;;;29.50;50.60;;;;;;5098679;28;20412;-84
2021/01/18 02:08:09;;;;;;;6.90;2.47;;;29.60;49.50;;;;;;5109598;28;20410;-83
2021/01/18 02:10:37;;;;;;;5.60;1.55;;;29.40;47.40;;;;;;5116529;28;20446;-84
2021/01/18 02:13:44;;;;;;;7.38;1.90;;;29.30;47.50;;;;;;5110361;28;20874;-84
2021/01/18 02:16:20;;;;;;;6.68;1.80;;;29.30;51.10;;;;;;5109110;28;20427;-84
2021/01/18 02:19:12;;;;;;;5.53;2.03;;;29.40;48.40;;;;;;5100280;28;20490;-83
2021/01/18 02:22:01;;;;;;;3.85;1.70;;;29.10;47.30;;;;;;5094247;28;20399;-82
2021/01/18 02:24:46;;;;;;;3.67;1.63;;;29.00;48.20;;;;;;5091232;28;20408;-82
2021/01/18 02:27:41;;;;;;;5.13;1.60;;;29.10;48.50;;;;;;5109918;28;20409;-83
2021/01/18 02:30:40;;;;;;;5.50;1.70;;;29.20;50.80;;;;;;5102531;28;20395;-85
2021/01/18 02:33:30;;;;;;;8.07;1.83;;;29.40;56.50;;;;;;5102581;28;20391;-82
2021/01/18 02:36:29;;;;;;;4.67;1.50;;;29.50;43.80;;;;;;5092564;28;20400;-82
2021/01/18 02:39:06;;;;;;;5.45;1.75;;;29.30;44.60;;;;;;5041783;28;20394;-82
2021/01/18 02:41:48;;;;;;;4.57;1.67;;;29.40;44.60;;;;;;5107907;28;20393;-83
2021/01/18 02:44:21;;;;;;;5.80;1.65;;;29.50;46.30;;;;;;5074692;28;20842;-82
2021/01/18 02:46:49;;;;;;;5.47;1.42;;;29.50;45.20;;;;;;5101966;28;20941;-82
2021/01/18 02:49:21;;;;;;;6.45;1.30;;;29.50;46.00;;;;;;5099847;28;20398;-82
2021/01/18 02:52:03;;;;;;;3.70;1.67;;;29.50;46.20;;;;;;5102678;28;20436;-82
2021/01/18 02:54:31;;;;;;;4.80;1.65;;;29.70;44.20;;;;;;5105277;28;20418;-82
2021/01/18 02:56:58;;;;;;;7.15;1.60;;;29.70;44.40;;;;;;5105979;28;20472;-80
2021/01/18 02:59:26;;;;;;;3.75;1.60;;;29.80;44.70;;;;;;5108120;28;20833;-82
2021/01/18 03:02:11;;;;;;;5.72;1.83;;;29.80;42.30;;;;;;5100793;28;20404;-82
2021/01/18 03:04:52;;;;;;;3.45;1.50;;;29.70;43.00;;;;;;5108036;28;20414;-82
2021/01/18 03:07:40;;;;;;;5.00;1.63;;;29.70;50.40;;;;;;5106965;28;20399;-82
2021/01/18 03:10:14;;;;;;;5.43;1.63;;;29.80;46.80;;;;;;5108576;28;20390;-81
2021/01/18 03:12:57;;;;;;;4.35;1.73;;;29.80;42.20;;;;;;5093996;28;20397;-82
2021/01/18 03:15:28;;;;;;;5.47;1.60;;;29.50;42.40;;;;;;5091864;28;20560;-82
2021/01/18 03:18:05;;;;;;;5.95;1.83;;;29.30;45.60;;;;;;5101319;28;20387;-82
2021/01/18 03:20:32;;;;;;;7.93;1.85;;;29.20;43.90;;;;;;5113571;27;20383;-84
2021/01/18 03:23:07;;;;;;;6.00;1.92;;;29.00;45.60;;;;;;5106157;28;20393;-82
2021/01/18 03:25:55;;;;;;;5.13;1.70;;;29.10;45.90;;;;;;5099866;28;20466;-83
2021/01/18 03:28:24;;;;;;;7.72;1.88;;;29.30;46.70;;;;;;5096724;28;20400;-82
2021/01/18 03:30:51;;;;;;;5.28;2.03;;;29.20;45.20;;;;;;5106389;28;20648;-84
2021/01/18 03:33:24;;;;;;;5.05;1.95;;;29.30;45.60;;;;;;5107334;28;20741;-83
2021/01/18 03:35:52;;;;;;;5.65;2.08;;;29.50;47.70;;;;;;5105967;28;20379;-84
2021/01/18 03:38:20;;;;;;;5.10;2.00;;;29.80;45.00;;;;;;5094796;28;20404;-83
2021/01/18 03:40:47;;;;;;;5.72;1.75;;;29.90;45.10;;;;;;5094337;28;20516;-83
2021/01/18 03:43:15;;;;;;;4.47;1.83;;;29.90;43.60;;;;;;5103921;28;20403;-83
2021/01/18 03:45:44;;;;;;;7.50;2.00;;;30.00;45.90;;;;;;5108044;28;20741;-84
2021/01/18 03:48:12;;;;;;;6.57;2.35;;;30.10;43.00;;;;;;5112806;28;20495;-83
2021/01/18 03:50:40;;;;;;;10.85;2.10;;;30.20;44.50;;;;;;5113446;27;20375;-83
2021/01/18 03:53:08;;;;;;;3.72;1.98;;;30.20;44.00;;;;;;5108497;28;20378;-82
2021/01/18 03:55:35;;;;;;;6.53;2.08;;;30.20;42.40;;;;;;5103630;28;20467;-83
2021/01/18 03:58:02;;;;;;;5.43;2.40;;;30.20;44.10;;;;;;5108184;28;20379;-83
2021/01/18 04:00:32;;;;;;;5.37;2.20;;;30.20;42.90;;;;;;5098845;28;20389;-83
2021/01/18 04:02:59;;;;;;;6.70;2.08;;;30.20;43.60;;;;;;5069459;28;20460;-82
2021/01/18 04:05:27;;;;;;;7.75;2.20;;;30.30;42.50;;;;;;5111436;28;20468;-81
2021/01/18 04:07:55;;;;;;;4.32;2.08;;;30.30;44.80;;;;;;5110952;28;20403;-80
2021/01/18 04:10:27;;;;;;;5.25;2.00;;;30.30;42.20;;;;;;5107168;28;20866;-82
2021/01/18 04:12:54;;;;;;;5.70;1.83;;;30.00;44.80;;;;;;5111669;28;20394;-82
2021/01/18 04:15:23;;;;;;;7.22;2.10;;;30.10;44.60;;;;;;5105077;28;20854;-82
2021/01/18 04:17:55;;;;;;;6.20;1.80;;;30.20;41.90;;;;;;5110225;28;21052;-81
2021/01/18 04:20:23;;;;;;;5.55;2.40;;;30.30;43.50;;;;;;5109916;28;20391;-81
2021/01/18 04:22:52;;;;;;;5.40;1.92;;;30.30;43.20;;;;;;5101379;28;20398;-81
2021/01/18 04:25:22;;;;;;;6.20;2.13;;;30.40;42.80;;;;;;5099330;28;20462;-80
2021/01/18 04:27:54;;;;;;;4.90;1.90;;;30.40;42.00;;;;;;5099034;28;20403;-81
2021/01/18 04:30:24;;;;;;;4.00;1.80;;;30.50;42.60;;;;;;5107379;28;20400;-81
2021/01/18 04:33:05;;;;;;;6.00;2.20;;;30.50;43.30;;;;;;5089710;28;20395;-81
2021/01/18 04:35:37;;;;;;;7.90;2.10;;;30.50;41.60;;;;;;5096498;28;20398;-81
2021/01/18 04:38:05;;;;;;;6.20;1.80;;;30.40;43.70;;;;;;5109069;28;20390;-82
2021/01/18 04:40:35;;;;;;;7.63;2.30;;;30.40;42.40;;;;;;5109729;27;20382;-82
2021/01/18 04:43:02;;;;;;;5.35;2.05;;;30.40;43.60;;;;;;5121908;27;20373;-82
2021/01/18 04:45:31;;;;;;;5.53;1.92;;;30.40;41.40;;;;;;5111043;28;20422;-83
2021/01/18 04:47:59;;;;;;;6.40;1.95;;;30.40;40.90;;;;;;5104592;28;20402;-82
2021/01/18 04:50:29;;;;;;;4.60;1.80;;;30.40;41.80;;;;;;5110356;28;20393;-81
2021/01/18 04:53:17;;;;;;;3.43;1.70;;;30.40;42.60;;;;;;5110762;28;20398;-82
2021/01/18 04:55:44;;;;;;;5.72;2.03;;;30.50;41.50;;;;;;5106761;28;20852;-81
2021/01/18 04:58:20;;;;;;;5.28;2.15;;;30.50;40.50;;;;;;5111451;28;20391;-81
2021/01/18 05:00:55;;;;;;;7.85;2.58;;;30.50;52.60;;;;;;5101950;27;20438;-83
2021/01/18 05:03:26;;;;;;;8.32;2.20;;;30.00;58.70;;;;;;5100319;28;20388;-81
2021/01/18 05:05:56;;;;;;;9.13;2.63;;;29.30;61.50;;;;;;5097388;28;20391;-82
2021/01/18 05:09:00;;;;;;;12.10;2.88;;;29.00;62.80;;;;;;5102115;28;20392;-81
2021/01/18 05:11:27;;;;;;;10.77;2.60;;;28.80;63.70;;;;;;5091113;28;20867;-81
2021/01/18 05:14:01;;;;;;;11.73;2.80;;;28.70;64.80;;;;;;5093231;28;20371;-82
2021/01/18 05:16:38;;;;;;;10.98;2.67;;;28.50;66.10;;;;;;5109564;28;20382;-82
2021/01/18 05:19:15;;;;;;;7.50;2.70;;;28.50;65.50;;;;;;5097430;28;20795;-82
2021/01/18 05:21:55;;;;;;;8.10;2.53;;;28.50;64.70;;;;;;5099225;28;20866;-82
2021/01/18 05:24:22;;;;;;;11.13;2.60;;;28.20;64.20;;;;;;5106500;28;20402;-81
2021/01/18 05:27:06;;;;;;;6.25;2.28;;;28.20;65.70;;;;;;5111941;28;20382;-82
2021/01/18 05:29:36;;;;;;;8.45;2.58;;;28.20;66.10;;;;;;5096375;28;20918;-81
2021/01/18 05:32:18;;;;;;;8.70;2.60;;;28.10;66.00;;;;;;5109063;28;20962;-81
2021/01/18 05:34:45;;;;;;;8.07;2.78;;;28.00;66.10;;;;;;5110755;28;20386;-82
2021/01/18 05:37:13;;;;;;;9.05;2.85;;;27.90;66.70;;;;;;5103244;27;20471;-82
2021/01/18 05:39:40;;;;;;;8.50;2.60;;;27.80;66.80;;;;;;5107204;28;20745;-82
2021/01/18 05:42:25;;;;;;;9.48;2.80;;;27.70;66.80;;;;;;5105286;28;20620;-82
2021/01/18 05:44:52;;;;;;;6.47;2.40;;;27.50;67.70;;;;;;5103720;28;20452;-82
2021/01/18 05:47:20;;;;;;;14.32;3.00;;;27.60;68.40;;;;;;5100350;28;20452;-82
2021/01/18 05:49:49;;;;;;;8.70;3.10;;;27.80;69.50;;;;;;5114754;27;20388;-81
2021/01/18 05:52:45;;;;;;;10.38;2.80;;;28.00;66.90;;;;;;5117680;27;20374;-82
2021/01/18 05:55:29;;;;;;;7.80;2.42;;;27.90;67.50;;;;;;5093482;28;20460;-81
2021/01/18 05:58:01;;;;;;;9.03;2.63;;;27.90;66.60;;;;;;5102813;28;20374;-82
2021/01/18 06:00:44;;;;;;;7.80;2.75;;;27.60;68.00;;;;;;5108186;28;20386;-81
2021/01/18 06:03:13;;;;;;;6.50;2.45;;;27.40;68.30;;;;;;5099532;28;20390;-81
2021/01/18 06:05:42;;;;;;;8.95;2.53;;;27.20;68.70;;;;;;5109803;28;20793;-81
2021/01/18 06:08:15;;;;;;;8.20;2.80;;;27.10;69.50;;;;;;5113124;27;20398;-82
2021/01/18 06:10:51;;;;;;;9.38;2.70;;;27.00;69.20;;;;;;5108727;28;20791;-82
2021/01/18 06:13:29;;;;;;;8.93;2.60;;;26.80;70.00;;;;;;5098079;28;20478;-83
2021/01/18 06:16:02;;;;;;;10.02;2.85;;;26.80;70.70;;;;;;5094867;28;20390;-83
2021/01/18 06:18:31;;;;;;;11.63;2.53;;;26.80;71.40;;;;;;5102161;27;20421;-83
2021/01/18 06:20:59;;;;;;;11.57;2.60;;;26.90;71.20;;;;;;5100981;27;20392;-82
2021/01/18 06:23:27;;;;;;;8.40;2.80;;;27.00;69.90;;;;;;5108571;28;20393;-82
2021/01/18 06:25:55;;;;;;;10.75;2.65;;;26.80;69.40;;;;;;5105981;28;20470;-82
2021/01/18 06:28:28;;;;;;;7.13;2.53;;;26.70;69.70;;;;;;5098233;28;20419;-82
2021/01/18 06:31:05;;;;;;;8.33;2.70;;;26.50;69.90;;;;;;5108734;28;20435;-84
2021/01/18 06:33:40;;;;;;;7.22;2.60;;;26.50;70.70;;;;;;5108835;28;20390;-81
2021/01/18 06:36:21;;;;;;;8.97;2.67;;;26.50;69.20;;;;;;5094668;28;20441;-85
2021/01/18 06:38:51;;;;;;;10.65;3.08;;;26.30;70.50;;;;;;5108849;28;20390;-82
2021/01/18 06:41:29;;;;;;;10.02;2.70;;;26.20;70.00;;;;;;5109832;28;20742;-82
2021/01/18 06:43:57;;;;;;;6.18;2.50;;;26.20;71.40;;;;;;5102738;28;20392;-82
2021/01/18 06:46:33;;;;;;;8.38;2.80;;;26.30;71.40;;;;;;5095611;28;20473;-84
2021/01/18 06:49:00;;;;;;;8.93;2.97;;;26.30;70.10;;;;;;5096767;28;20404;-84
2021/01/18 06:51:29;;;;;;;8.27;2.37;;;26.20;71.00;;;;;;5092507;28;20442;-84
2021/01/18 06:53:58;;;;;;;10.90;2.63;;;26.20;71.30;;;;;;5100041;28;20893;-83
2021/01/18 06:56:59;;;;;;;6.70;2.58;;;26.20;72.10;;;;;;5102735;28;20928;-80
2021/01/18 06:59:50;;;;;;;9.82;2.80;;;26.30;71.20;;;;;;5101614;28;20387;-81
2021/01/18 07:02:24;;;;;;;9.10;2.83;;;26.20;70.00;;;;;;5102838;28;20475;-83
2021/01/18 07:04:52;;;;;;;8.68;3.20;;;26.00;70.90;;;;;;5090659;28;20411;-80
2021/01/18 07:07:31;;;;;;;7.65;2.67;;;25.90;71.30;;;;;;5104898;28;20410;-81
2021/01/18 07:10:00;;;;;;;7.47;2.50;;;25.90;71.90;;;;;;5106812;28;20914;-83
2021/01/18 07:12:28;;;;;;;7.77;2.80;;;25.90;72.10;;;;;;5094426;28;20388;-85
2021/01/18 07:15:10;;;;;;;6.88;2.70;;;25.80;72.30;;;;;;5094041;28;20419;-83
2021/01/18 07:17:49;;;;;;;6.13;2.80;;;25.80;73.20;;;;;;5103547;28;20398;-84
2021/01/18 07:20:27;;;;;;;9.18;2.78;;;25.80;72.20;;;;;;5100613;28;20395;-83
2021/01/18 07:23:03;;;;;;;7.87;2.43;;;25.70;72.20;;;;;;5094222;28;20398;-84
2021/01/18 07:25:36;;;;;;;7.53;2.57;;;25.70;72.00;;;;;;5105999;28;20877;-83
2021/01/18 07:28:05;;;;;;;7.97;2.60;;;25.60;71.80;;;;;;5101967;28;20507;-85
2021/01/18 07:30:38;;;;;;;7.18;2.35;;;25.50;71.20;;;;;;5099305;28;20388;-83
2021/01/18 07:33:17;;;;;;;7.55;2.42;;;25.40;72.10;;;;;;5090079;28;20384;-82
2021/01/18 07:35:46;;;;;;;9.73;2.60;;;25.40;70.80;;;;;;5094109;28;20451;-82
2021/01/18 07:38:37;;;;;;;4.95;1.92;;;25.40;67.60;;;;;;5102689;28;20398;-82
2021/01/18 07:41:09;;;;;;;5.88;2.00;;;25.30;67.00;;;;;;5108610;28;20394;-83
2021/01/18 07:43:41;;;;;;;5.23;2.10;;;25.30;67.00;;;;;;5102597;28;20948;-81
2021/01/18 07:46:29;;;;;;;7.45;2.40;;;25.20;65.90;;;;;;5104662;28;20423;-82
2021/01/18 07:49:14;;;;;;;5.90;2.35;;;25.20;64.70;;;;;;5095111;28;20415;-83
2021/01/18 07:51:41;;;;;;;7.35;2.42;;;25.10;65.80;;;;;;5106973;28;20419;-81
2021/01/18 07:54:34;;;;;;;6.60;2.60;;;25.00;66.30;;;;;;5077209;28;20404;-82
2021/01/18 07:57:28;;;;;;;8.10;2.42;;;24.90;67.30;;;;;;5112646;28;20730;-81
2021/01/18 08:00:22;;;;;;;7.37;2.80;;;24.90;68.10;;;;;;5106867;28;20388;-81
2021/01/18 08:02:50;;;;;;;9.07;2.95;;;24.80;69.20;;;;;;5097847;28;20842;-82
2021/01/18 08:05:31;;;;;;;9.98;2.90;;;24.70;70.20;;;;;;5095048;28;20364;-81
2021/01/18 08:08:14;;;;;;;7.75;2.50;;;24.70;71.10;;;;;;5101150;28;20398;-81
2021/01/18 08:10:50;;;;;;;6.70;2.40;;;24.70;72.40;;;;;;5097342;28;20518;-81
2021/01/18 08:13:33;;;;;;;8.20;3.00;;;24.60;73.70;;;;;;5095950;28;20499;-82
2021/01/18 08:16:23;;;;;;;6.10;2.40;;;24.50;74.80;;;;;;5100194;28;20755;-82
2021/01/18 08:18:56;;;;;;;8.38;2.70;;;24.50;73.70;;;;;;5078705;28;20494;-82
2021/01/18 08:21:57;;;;;;;6.30;2.55;;;24.40;73.20;;;;;;5102306;28;20893;-82
2021/01/18 08:24:23;;;;;;;8.43;2.50;;;24.40;71.30;;;;;;5088119;28;20477;-81
2021/01/18 08:26:55;;;;;;;10.48;2.80;;;24.40;70.80;;;;;;5100048;28;20375;-82
2021/01/18 08:29:38;;;;;;;9.32;2.30;;;24.30;68.90;;;;;;5109570;28;20435;-82
2021/01/18 08:32:24;;;;;;;6.43;2.00;;;24.30;68.60;;;;;;5109407;27;20375;-82
2021/01/18 08:34:51;;;;;;;5.37;2.20;;;24.20;69.50;;;;;;5118864;27;20451;-82
2021/01/18 08:37:19;;;;;;;5.90;2.45;;;24.20;69.40;;;;;;5109254;28;20414;-81
2021/01/18 08:39:59;;;;;;;5.03;2.40;;;24.10;69.70;;;;;;5109593;28;20375;-82
2021/01/18 08:42:37;;;;;;;11.23;3.50;;;24.00;70.20;;;;;;5105602;28;20429;-81
2021/01/18 08:45:08;;;;;;;10.63;4.05;;;24.00;70.80;;;;;;5103613;28;20398;-83
2021/01/18 08:48:05;;;;;;;10.32;4.15;;;23.90;72.40;;;;;;5090771;28;20403;-82
2021/01/18 08:50:52;;;;;;;11.85;4.72;;;23.90;73.60;;;;;;5103972;28;20491;-83
2021/01/18 08:53:33;;;;;;;10.48;4.45;;;23.90;75.00;;;;;;5093926;27;20703;-82
2021/01/18 08:56:08;;;;;;;9.55;3.45;;;23.90;76.10;;;;;;5096803;28;20470;-83
2021/01/18 08:58:43;;;;;;;8.65;3.40;;;23.80;76.80;;;;;;5109086;28;20367;-83
2021/01/18 09:01:22;;;;;;;8.55;4.00;;;23.80;77.20;;;;;;5095015;28;20384;-81
2021/01/18 09:03:59;;;;;;;9.40;3.50;;;23.80;78.00;;;;;;5089451;28;20885;-82
2021/01/18 09:06:28;;;;;;;7.32;3.53;;;23.70;78.60;;;;;;5088739;28;20611;-82
2021/01/18 09:09:08;;;;;;;8.73;2.85;;;23.60;79.50;;;;;;5088104;28;20412;-82
2021/01/18 09:11:36;;;;;;;9.75;3.03;;;23.50;79.90;;;;;;5101474;28;20390;-83
2021/01/18 09:14:05;;;;;;;7.80;3.08;;;23.50;80.80;;;;;;5097651;28;20393;-83
2021/01/18 09:16:32;;;;;;;11.20;3.17;;;23.40;81.50;;;;;;5091437;28;20468;-83
2021/01/18 09:19:08;;;;;;;9.68;3.28;;;23.30;82.00;;;;;;5108116;28;20385;-82
2021/01/18 09:21:35;;;;;;;8.50;3.35;;;23.30;82.30;;;;;;5103097;28;20425;-82
2021/01/18 09:24:09;;;;;;;8.02;2.90;;;23.20;82.90;;;;;;5098483;28;20413;-82
2021/01/18 09:26:36;;;;;;;8.90;2.38;;;23.10;83.20;;;;;;5106698;28;20809;-82
2021/01/18 09:29:03;;;;;;;8.18;3.00;;;23.10;83.50;;;;;;5088897;28;20887;-82
2021/01/18 09:31:31;;;;;;;8.00;2.80;;;23.10;84.00;;;;;;5095700;28;20384;-83
2021/01/18 09:34:11;;;;;;;5.40;2.40;;;23.10;83.90;;;;;;5098874;28;20405;-83
2021/01/18 09:36:40;;;;;;;7.15;2.72;;;23.00;84.20;;;;;;5094406;28;20507;-82
2021/01/18 09:39:17;;;;;;;9.88;2.67;;;23.10;84.20;;;;;;5098334;28;20810;-83
2021/01/18 09:41:43;;;;;;;9.48;2.65;;;23.00;84.40;;;;;;5102724;27;20551;-81
2021/01/18 09:44:12;;;;;;;8.90;2.38;;;23.00;84.80;;;;;;5116233;27;20419;-83
2021/01/18 09:46:46;;;;;;;8.13;2.67;;;23.00;85.40;;;;;;5107639;27;20514;-83
2021/01/18 09:49:13;;;;;;;6.55;2.50;;;22.90;85.80;;;;;;5096581;28;20414;-84
2021/01/18 09:51:40;;;;;;;5.90;2.13;;;22.90;86.40;;;;;;5099339;28;20452;-83
2021/01/18 09:54:11;;;;;;;7.55;2.35;;;22.90;86.40;;;;;;5089114;28;20760;-83
2021/01/18 09:56:39;;;;;;;9.00;2.35;;;22.90;87.30;;;;;;5101671;28;20392;-82
2021/01/18 09:59:09;;;;;;;9.02;2.63;;;22.90;87.30;;;;;;5107480;28;20401;-82
2021/01/18 10:01:39;;;;;;;6.20;2.40;;;22.80;87.60;;;;;;5105842;28;20978;-83
2021/01/18 10:04:08;;;;;;;6.17;2.40;;;22.80;87.90;;;;;;5122026;27;20398;-83
2021/01/18 10:06:36;;;;;;;10.35;3.55;;;22.70;88.50;;;;;;5097253;28;20393;-82
2021/01/18 10:09:13;;;;;;;7.40;2.30;;;22.80;89.30;;;;;;5094030;28;20407;-83
2021/01/18 10:11:48;;;;;;;8.68;2.70;;;22.70;90.00;;;;;;5100086;28;20388;-82
2021/01/18 10:14:24;;;;;;;11.98;3.03;;;22.70;90.50;;;;;;5102870;28;20387;-82
2021/01/18 10:17:07;;;;;;;8.32;2.80;;;22.60;91.00;;;;;;5091106;28;21175;-82
2021/01/18 10:19:36;;;;;;;7.93;3.25;;;22.60;91.50;;;;;;5102222;28;20445;-83
2021/01/18 10:22:05;;;;;;;8.67;2.77;;;22.60;91.70;;;;;;5104067;28;20374;-82
2021/01/18 10:24:35;;;;;;;9.15;2.90;;;22.60;91.90;;;;;;5088763;28;20863;-81
2021/01/18 10:27:10;;;;;;;10.65;3.20;;;22.50;92.20;;;;;;5099435;28;20455;-82
2021/01/18 10:29:45;;;;;;;9.80;3.45;;;22.50;92.20;;;;;;5087364;28;20450;-82
2021/01/18 10:32:12;;;;;;;10.30;2.80;;;22.50;92.30;;;;;;5087448;28;21115;-82
2021/01/18 10:34:39;;;;;;;8.32;2.88;;;22.30;92.50;;;;;;5087291;28;20376;-82
2021/01/18 10:37:15;;;;;;;9.40;3.20;;;22.40;92.40;;;;;;5094814;28;20396;-82
2021/01/18 10:39:44;;;;;;;7.45;2.63;;;22.40;92.50;;;;;;5099726;28;20717;-82
2021/01/18 10:42:16;;;;;;;9.38;3.47;;;22.40;92.70;;;;;;5106576;28;20422;-82
2021/01/18 10:44:54;;;;;;;5.93;2.78;;;22.40;92.70;;;;;;5105507;28;20395;-82
2021/01/18 10:47:28;;;;;;;8.95;3.17;;;22.40;93.00;;;;;;5088890;28;20420;-83
2021/01/18 10:49:59;;;;;;;7.55;3.42;;;22.40;93.10;;;;;;5087596;28;20481;-82
2021/01/18 10:52:34;;;;;;;9.15;3.28;;;22.30;93.40;;;;;;5092142;28;20491;-82
2021/01/18 10:55:03;;;;;;;9.55;3.70;;;22.30;93.50;;;;;;5106751;28;20402;-82
2021/01/18 10:57:30;;;;;;;10.90;3.55;;;22.30;93.60;;;;;;5102358;28;20382;-82
2021/01/18 11:00:15;;;;;;;10.23;3.35;;;22.30;93.50;;;;;;5108645;27;20389;-82
2021/01/18 11:02:52;;;;;;;8.57;3.28;;;22.40;93.50;;;;;;5101050;28;20902;-83
2021/01/18 11:05:19;;;;;;;6.93;3.05;;;22.40;93.50;;;;;;5105861;28;20387;-83
2021/01/18 11:07:48;;;;;;;10.50;3.20;;;22.30;93.60;;;;;;5105328;28;20901;-83
2021/01/18 11:10:15;;;;;;;9.07;2.90;;;22.20;93.70;;;;;;5098508;28;20551;-83
2021/01/18 11:12:42;;;;;;;6.57;2.90;;;22.10;93.90;;;;;;5103923;28;20374;-82
2021/01/18 11:15:12;;;;;;;8.70;2.90;;;22.00;93.90;;;;;;5099712;28;20811;-82
2021/01/18 11:17:39;;;;;;;6.35;2.97;;;21.90;94.10;;;;;;5082404;28;20854;-82
2021/01/18 11:20:08;;;;;;;8.13;3.35;;;21.90;94.40;;;;;;5097907;28;20398;-83
2021/01/18 11:22:36;;;;;;;8.75;3.10;;;21.80;94.50;;;;;;5104323;28;20390;-83
2021/01/18 11:25:03;;;;;;;5.88;2.72;;;21.80;94.40;;;;;;5097305;28;20398;-83
2021/01/18 11:27:30;;;;;;;8.73;3.10;;;21.70;94.40;;;;;;5101217;28;20398;-83
2021/01/18 11:29:57;;;;;;;6.80;2.92;;;21.70;94.40;;;;;;5097000;28;20423;-83
2021/01/18 11:32:24;;;;;;;7.95;2.83;;;21.60;94.40;;;;;;5106669;27;20363;-83
2021/01/18 11:34:51;;;;;;;8.07;2.75;;;21.60;94.50;;;;;;5102777;27;20395;-83
2021/01/18 11:37:18;;;;;;;7.78;3.05;;;21.60;94.50;;;;;;5107627;28;20609;-82
2021/01/18 11:39:45;;;;;;;9.05;2.95;;;21.50;94.60;;;;;;5101240;28;20954;-82
2021/01/18 11:42:12;;;;;;;8.98;2.90;;;21.50;94.80;;;;;;5092674;28;20451;-82
2021/01/18 11:44:40;;;;;;;8.55;3.13;;;21.50;94.90;;;;;;5095127;28;20402;-83
2021/01/18 11:47:07;;;;;;;7.85;3.10;;;21.50;94.90;;;;;;5097274;28;20400;-81
2021/01/18 11:49:35;;;;;;;7.47;2.88;;;21.50;94.90;;;;;;5093624;28;20450;-82
2021/01/18 11:52:02;;;;;;;6.45;2.45;;;21.50;94.90;;;;;;5087471;28;20935;-82
2021/01/18 11:54:29;;;;;;;9.88;3.20;;;21.50;94.90;;;;;;5097865;28;20415;-82
2021/01/18 11:56:56;;;;;;;7.15;2.75;;;21.40;94.90;;;;;;5096553;28;20409;-82
2021/01/18 11:59:23;;;;;;;8.65;2.83;;;21.40;95.00;;;;;;5089417;28;20428;-83
2021/01/18 12:01:50;;;;;;;8.88;2.90;;;21.40;95.30;;;;;;5093976;28;20463;-82
2021/01/18 12:04:17;;;;;;;9.18;3.17;;;21.30;95.30;;;;;;5088693;28;20732;-82
2021/01/18 12:06:44;;;;;;;7.85;2.85;;;21.30;95.50;;;;;;5088781;28;20364;-82
2021/01/18 12:09:11;;;;;;;9.07;3.30;;;21.30;95.30;;;;;;5094508;28;20399;-83
2021/01/18 12:11:40;;;;;;;5.75;2.90;;;21.40;95.40;;;;;;5100468;28;21149;-83
2021/01/18 12:14:08;;;;;;;9.93;3.10;;;21.40;95.20;;;;;;5109133;28;20427;-83
2021/01/18 12:16:35;;;;;;;10.90;3.30;;;21.40;95.20;;;;;;5100609;28;20887;-83
2021/01/18 12:19:03;;;;;;;9.25;3.00;;;21.40;95.20;;;;;;5088603;28;20856;-82
2021/01/18 12:21:30;;;;;;;6.50;2.85;;;21.40;95.50;;;;;;5088429;28;20391;-83
2021/01/18 12:23:57;;;;;;;6.32;3.25;;;21.40;95.50;;;;;;5088714;28;20377;-83
2021/01/18 12:26:24;;;;;;;6.90;2.97;;;21.30;95.40;;;;;;5092127;28;20415;-83
2021/01/18 12:28:51;;;;;;;11.65;3.60;;;21.30;95.60;;;;;;5093347;28;20416;-83
2021/01/18 12:31:18;;;;;;;8.23;3.20;;;21.20;95.60;;;;;;5111941;28;20458;-84
2021/01/18 12:33:45;;;;;;;12.43;5.25;;;21.20;95.80;;;;;;5098751;28;20392;-83
2021/01/18 12:36:12;;;;;;;7.95;3.20;;;21.00;96.30;;;;;;5110148;28;20383;-84
2021/01/18 12:38:40;;;;;;;7.63;3.45;;;20.80;96.70;;;;;;5110770;28;20413;-82
2021/01/18 12:41:07;;;;;;;8.90;3.47;;;20.70;96.90;;;;;;5107463;28;20381;-83
2021/01/18 12:43:35;;;;;;;10.15;3.20;;;20.70;97.10;;;;;;5091945;28;20392;-83
2021/01/18 12:46:02;;;;;;;11.80;3.40;;;20.80;97.00;;;;;;5099871;28;20410;-83
2021/01/18 12:48:30;;;;;;;9.35;3.42;;;20.80;97.10;;;;;;5105830;28;20416;-81
2021/01/18 12:50:57;;;;;;;7.22;3.22;;;20.90;97.00;;;;;;5092188;28;20380;-82
2021/01/18 12:56:09;;;;;;;8.23;3.25;;;20.80;97.20;;;;;;5096734;28;20378;-82
2021/01/18 12:58:36;;;;;;;8.35;3.42;;;20.80;97.30;;;;;;5097005;28;20390;-82
2021/01/18 13:01:03;;;;;;;7.68;3.45;;;20.70;97.30;;;;;;5095362;28;20388;-82
2021/01/18 13:03:30;;;;;;;7.18;2.85;;;20.70;97.40;;;;;;5108888;28;20480;-83
2021/01/18 13:05:57;;;;;;;8.98;3.35;;;20.60;97.40;;;;;;5107475;28;20896;-82
2021/01/18 13:08:24;;;;;;;8.25;3.40;;;20.60;97.50;;;;;;5110526;28;20492;-85
2021/01/18 13:11:03;;;;;;;9.95;3.38;;;20.60;97.50;;;;;;5102861;28;20406;-82
2021/01/18 13:13:31;;;;;;;8.35;3.33;;;20.60;97.60;;;;;;5096137;28;20388;-82
2021/01/18 13:15:59;;;;;;;9.32;3.38;;;20.50;97.70;;;;;;5102668;28;20395;-82